Time;durP1;ratioP1;P1;durP2;ratioP2;P2;SDS_P1;SDS_P2;PMS_P1;PMS_P2;Temp;Humidity;BMP_temperature;BMP_pressure;BME280_temperature;BME280_humidity;BME280_pressure;Samples;Min_cycle;Max_cycle;Signal;HPM_P1;HPM_P2
2021/05/27 00:00:58;;;;;;;24.60;12.93;;;11.30;91.10;;;;;;4957487;28;20023;-78
2021/05/27 00:03:24;;;;;;;26.38;13.07;;;11.20;91.40;;;;;;4959076;28;20125;-78
2021/05/27 00:05:49;;;;;;;29.15;14.18;;;11.20;91.40;;;;;;4962886;28;20355;-79
2021/05/27 00:08:15;;;;;;;26.40;13.75;;;11.20;91.50;;;;;;4956752;28;20046;-80
2021/05/27 00:10:41;;;;;;;25.88;11.85;;;11.10;91.70;;;;;;4957261;28;20054;-80
2021/05/27 00:13:07;;;;;;;28.38;12.10;;;11.10;91.60;;;;;;4956966;28;20053;-79
2021/05/27 00:15:32;;;;;;;22.33;10.93;;;11.10;91.50;;;;;;4956960;28;20096;-80
2021/05/27 00:17:58;;;;;;;19.08;8.90;;;11.10;91.40;;;;;;4974800;28;20030;-79
2021/05/27 00:20:25;;;;;;;21.40;10.80;;;11.00;91.30;;;;;;4957501;28;20529;-80
2021/05/27 00:22:51;;;;;;;25.80;11.82;;;11.00;91.30;;;;;;4957326;28;20031;-80
2021/05/27 00:25:17;;;;;;;26.23;11.00;;;11.00;91.40;;;;;;4962435;28;20102;-78
2021/05/27 00:27:44;;;;;;;37.65;14.77;;;11.00;91.40;;;;;;4976131;28;20034;-79
2021/05/27 00:30:11;;;;;;;24.38;13.50;;;11.00;91.60;;;;;;4957916;28;20025;-79
2021/05/27 00:32:37;;;;;;;32.67;12.48;;;11.00;91.90;;;;;;4957993;28;20058;-80
2021/05/27 00:35:04;;;;;;;32.47;13.65;;;10.90;91.80;;;;;;4958288;28;20038;-80
2021/05/27 00:37:30;;;;;;;33.85;12.43;;;10.90;91.80;;;;;;4957377;28;20019;-79
2021/05/27 00:39:55;;;;;;;29.00;12.73;;;10.90;91.90;;;;;;4965305;28;20046;-81
2021/05/27 00:42:21;;;;;;;39.28;13.30;;;10.80;91.90;;;;;;4958759;28;20033;-81
2021/05/27 00:45:04;;;;;;;31.45;13.20;;;10.90;92.10;;;;;;4959760;28;20035;-80
2021/05/27 00:47:33;;;;;;;32.00;14.02;;;10.80;92.20;;;;;;4958305;28;20019;-80
2021/05/27 00:49:58;;;;;;;34.00;14.43;;;10.80;92.00;;;;;;4975482;28;20026;-81
2021/05/27 00:52:24;;;;;;;32.10;12.70;;;10.80;92.00;;;;;;4957113;28;20474;-80
2021/05/27 00:54:53;;;;;;;27.90;13.25;;;10.80;92.00;;;;;;4973459;28;20035;-80
2021/05/27 00:57:32;;;;;;;28.08;13.13;;;10.70;91.70;;;;;;4956491;28;20030;-81
2021/05/27 01:00:07;;;;;;;32.22;13.60;;;10.80;92.10;;;;;;4956674;28;20018;-82
2021/05/27 01:02:33;;;;;;;32.67;13.02;;;10.80;92.30;;;;;;4956178;28;20038;-81
2021/05/27 01:04:59;;;;;;;34.03;13.50;;;10.80;92.30;;;;;;4956622;28;20062;-81
2021/05/27 01:07:25;;;;;;;29.10;12.93;;;10.80;92.50;;;;;;4973982;28;20082;-83
2021/05/27 01:09:51;;;;;;;34.97;14.95;;;10.80;91.90;;;;;;4957029;28;20030;-82
2021/05/27 01:12:17;;;;;;;37.97;13.57;;;10.70;92.40;;;;;;4957423;28;20027;-81
2021/05/27 01:17:27;;;;;;;34.10;14.23;;;10.70;92.70;;;;;;4974614;28;20034;-81
2021/05/27 01:19:53;;;;;;;26.40;12.82;;;10.80;92.70;;;;;;4956872;28;20023;-81
2021/05/27 01:22:22;;;;;;;31.27;12.25;;;10.70;92.70;;;;;;4974015;28;20027;-81
2021/05/27 01:24:49;;;;;;;34.45;14.27;;;10.70;92.80;;;;;;4956213;28;20030;-81
2021/05/27 01:27:16;;;;;;;34.15;14.27;;;10.70;92.90;;;;;;4957044;28;20302;-80
2021/05/27 01:29:50;;;;;;;32.83;12.45;;;10.70;92.80;;;;;;4956493;28;20161;-80
2021/05/27 01:32:16;;;;;;;26.45;12.70;;;10.60;92.80;;;;;;4956899;28;20050;-81
2021/05/27 01:34:41;;;;;;;19.50;10.20;;;10.60;92.80;;;;;;4957587;28;20074;-80
2021/05/27 01:37:07;;;;;;;25.40;10.00;;;10.60;92.70;;;;;;4978170;28;20351;-82
2021/05/27 01:39:32;;;;;;;27.63;10.60;;;10.60;92.80;;;;;;4966055;28;20113;-80
2021/05/27 01:41:58;;;;;;;26.38;13.35;;;10.60;92.70;;;;;;4972739;28;20026;-79
2021/05/27 01:44:24;;;;;;;29.67;12.23;;;10.50;92.80;;;;;;4965607;28;20026;-81
2021/05/27 01:46:49;;;;;;;29.73;12.55;;;10.50;92.70;;;;;;4962446;28;20057;-80
2021/05/27 01:49:16;;;;;;;21.25;10.55;;;10.50;92.70;;;;;;4960592;28;20030;-79
2021/05/27 01:51:48;;;;;;;22.30;9.68;;;10.40;92.90;;;;;;4959744;28;20049;-80
2021/05/27 01:54:14;;;;;;;26.70;9.85;;;10.40;92.90;;;;;;4959925;28;20097;-81
2021/05/27 01:56:39;;;;;;;30.88;13.27;;;10.40;92.90;;;;;;4959389;28;20538;-81
2021/05/27 01:59:05;;;;;;;23.42;10.10;;;10.40;93.10;;;;;;4976669;28;20390;-81
2021/05/27 02:01:31;;;;;;;25.42;12.52;;;10.40;93.00;;;;;;4959585;28;20031;-81
2021/05/27 02:03:57;;;;;;;21.80;9.98;;;10.40;93.10;;;;;;4959894;28;20122;-81
2021/05/27 02:06:23;;;;;;;27.23;12.20;;;10.40;93.00;;;;;;4959219;28;20026;-80
2021/05/27 02:11:34;;;;;;;26.80;14.25;;;10.40;93.30;;;;;;4977076;28;20493;-82
2021/05/27 02:14:00;;;;;;;30.92;13.07;;;10.40;93.40;;;;;;4976690;28;20467;-81
2021/05/27 02:16:25;;;;;;;30.23;11.60;;;10.40;93.40;;;;;;4959793;28;20027;-81
2021/05/27 02:18:51;;;;;;;25.00;12.82;;;10.40;93.20;;;;;;4959724;28;20122;-82
2021/05/27 02:21:17;;;;;;;20.70;11.18;;;10.40;93.30;;;;;;4959653;28;20066;-81
2021/05/27 02:23:42;;;;;;;22.17;11.25;;;10.40;93.30;;;;;;4959689;28;20062;-81
2021/05/27 02:26:08;;;;;;;28.20;11.20;;;10.40;93.30;;;;;;4960226;28;20034;-82
2021/05/27 02:28:33;;;;;;;21.15;10.85;;;10.40;93.40;;;;;;4959807;28;20023;-81
2021/05/27 02:30:59;;;;;;;30.10;10.73;;;10.40;93.20;;;;;;4970863;28;20085;-80
2021/05/27 02:33:25;;;;;;;24.20;11.23;;;10.40;93.20;;;;;;4973600;28;20402;-82
2021/05/27 02:35:50;;;;;;;30.15;13.95;;;10.40;93.30;;;;;;4959346;28;20113;-82
2021/05/27 02:38:16;;;;;;;25.50;11.90;;;10.40;93.40;;;;;;4958919;28;20030;-80
2021/05/27 02:40:42;;;;;;;23.45;11.18;;;10.30;93.40;;;;;;4975708;28;20031;-81
2021/05/27 02:43:07;;;;;;;28.88;11.23;;;10.30;93.50;;;;;;4958706;28;20058;-82
2021/05/27 02:45:33;;;;;;;21.80;11.40;;;10.30;93.30;;;;;;4960774;28;20062;-81
2021/05/27 02:47:59;;;;;;;27.02;11.15;;;10.30;93.30;;;;;;4958933;28;20026;-81
2021/05/27 02:50:24;;;;;;;21.17;11.32;;;10.30;93.60;;;;;;4961057;28;20462;-81
2021/05/27 02:52:50;;;;;;;19.35;9.77;;;10.30;93.50;;;;;;4977691;28;20081;-81
2021/05/27 02:55:15;;;;;;;26.02;11.30;;;10.30;93.50;;;;;;4958768;28;20023;-80
2021/05/27 02:57:41;;;;;;;28.05;11.82;;;10.30;93.80;;;;;;4959451;28;20486;-81
2021/05/27 03:00:07;;;;;;;26.02;12.27;;;10.30;93.60;;;;;;4959748;28;20106;-81
2021/05/27 03:02:33;;;;;;;19.17;10.48;;;10.30;93.60;;;;;;4959256;28;20117;-80
2021/05/27 03:04:59;;;;;;;26.80;11.80;;;10.30;93.60;;;;;;4958538;28;20453;-80
2021/05/27 03:07:24;;;;;;;28.90;11.02;;;10.30;93.50;;;;;;4954801;29;20043;-80
2021/05/27 03:09:50;;;;;;;29.75;12.60;;;10.30;93.50;;;;;;4955101;29;20086;-80
2021/05/27 03:12:16;;;;;;;23.30;12.15;;;10.30;93.50;;;;;;4954943;29;20032;-79
2021/05/27 03:14:41;;;;;;;17.23;10.77;;;10.20;93.40;;;;;;4956000;28;20042;-80
2021/05/27 03:17:07;;;;;;;21.67;10.93;;;10.30;93.50;;;;;;4954895;29;20019;-81
2021/05/27 03:19:32;;;;;;;19.15;10.57;;;10.30;93.50;;;;;;4955094;29;20537;-82
2021/05/27 03:21:58;;;;;;;27.67;12.88;;;10.30;93.70;;;;;;4956203;29;20031;-81
2021/05/27 03:24:24;;;;;;;21.65;11.68;;;10.30;93.70;;;;;;4955105;29;20110;-81
2021/05/27 03:26:51;;;;;;;22.02;12.13;;;10.30;93.70;;;;;;4954866;29;20492;-81
2021/05/27 03:29:18;;;;;;;26.90;11.82;;;10.30;93.60;;;;;;4955069;29;20090;-80
2021/05/27 03:31:44;;;;;;;23.98;11.57;;;10.20;93.50;;;;;;4954680;29;20074;-80
2021/05/27 03:34:10;;;;;;;20.38;10.35;;;10.20;93.50;;;;;;4961408;29;20027;-79
2021/05/27 03:36:35;;;;;;;26.02;12.48;;;10.20;93.60;;;;;;4968374;29;20050;-81
2021/05/27 03:39:02;;;;;;;26.23;12.40;;;10.20;93.50;;;;;;4958685;29;20094;-79
2021/05/27 03:41:28;;;;;;;24.98;12.77;;;10.20;93.60;;;;;;4954879;29;20015;-81
2021/05/27 03:43:53;;;;;;;20.65;12.27;;;10.20;93.70;;;;;;4956529;29;20038;-81
2021/05/27 03:46:19;;;;;;;22.45;11.10;;;10.20;93.70;;;;;;4955188;29;20089;-81
2021/05/27 03:48:45;;;;;;;25.58;11.82;;;10.20;93.50;;;;;;4955590;29;20383;-81
2021/05/27 03:51:10;;;;;;;21.65;10.50;;;10.30;93.60;;;;;;4956381;29;20027;-80
2021/05/27 03:53:36;;;;;;;28.30;12.65;;;10.20;93.70;;;;;;4954776;29;20383;-81
2021/05/27 03:56:02;;;;;;;21.80;9.45;;;10.20;93.70;;;;;;4955913;29;20086;-81
2021/05/27 04:01:12;;;;;;;19.27;10.82;;;10.20;93.50;;;;;;4957148;29;20042;-81
2021/05/27 04:09:06;;;;;;;27.45;12.43;;;10.10;93.70;;;;;;4975543;28;20206;-81
2021/05/27 04:11:31;;;;;;;26.50;11.50;;;10.20;93.90;;;;;;4959275;28;20054;-82
2021/05/27 04:13:57;;;;;;;26.27;12.10;;;10.10;93.90;;;;;;4958349;28;20023;-81
2021/05/27 04:16:23;;;;;;;19.98;10.23;;;10.10;94.00;;;;;;4957573;28;20026;-81
2021/05/27 04:18:49;;;;;;;20.48;9.80;;;10.10;94.00;;;;;;4957282;28;20023;-81
2021/05/27 04:21:14;;;;;;;18.75;9.50;;;10.20;94.00;;;;;;4957524;28;20352;-81
2021/05/27 04:23:40;;;;;;;18.85;8.95;;;10.20;93.90;;;;;;4957240;28;20037;-82
2021/05/27 04:26:11;;;;;;;21.30;9.93;;;10.20;93.90;;;;;;4956609;28;20034;-82
2021/05/27 04:28:38;;;;;;;21.90;9.77;;;10.20;93.80;;;;;;4957409;28;20019;-82
2021/05/27 04:33:35;;;;;;;19.60;9.15;;;10.20;93.70;;;;;;4975097;28;20042;-81
2021/05/27 04:36:00;;;;;;;15.30;8.10;;;10.20;93.80;;;;;;4961505;28;20050;-80
2021/05/27 04:38:26;;;;;;;22.08;9.77;;;10.20;93.70;;;;;;4978351;28;20027;-81
2021/05/27 04:40:51;;;;;;;24.98;10.18;;;10.20;93.70;;;;;;4958997;28;20030;-82
2021/05/27 04:43:18;;;;;;;24.48;9.73;;;10.20;93.80;;;;;;4973995;28;20503;-81
2021/05/27 04:45:44;;;;;;;26.10;9.32;;;10.20;93.80;;;;;;4956953;28;20166;-81
2021/05/27 04:48:10;;;;;;;19.52;9.45;;;10.20;93.70;;;;;;4959439;28;20050;-81
2021/05/27 04:50:40;;;;;;;16.35;8.77;;;10.20;93.80;;;;;;4958886;28;20023;-81
2021/05/27 04:53:07;;;;;;;21.80;9.68;;;10.20;93.80;;;;;;4958521;28;20023;-81
2021/05/27 04:55:33;;;;;;;22.83;9.77;;;10.20;93.90;;;;;;4956825;28;20033;-81
2021/05/27 04:58:00;;;;;;;16.65;8.75;;;10.30;93.80;;;;;;4956795;28;20019;-81
2021/05/27 05:00:26;;;;;;;18.25;9.32;;;10.30;93.70;;;;;;4957408;28;20026;-80
2021/05/27 05:02:53;;;;;;;18.42;9.25;;;10.30;93.70;;;;;;4956872;28;20066;-81
2021/05/27 05:05:20;;;;;;;21.90;8.63;;;10.30;93.80;;;;;;4957137;28;20031;-80
2021/05/27 05:07:46;;;;;;;19.08;9.27;;;10.30;93.80;;;;;;4957212;28;20119;-81
2021/05/27 05:10:13;;;;;;;18.85;8.82;;;10.30;93.70;;;;;;4958789;28;20073;-80
2021/05/27 05:12:46;;;;;;;25.33;9.38;;;10.30;93.60;;;;;;4960915;28;20026;-80
2021/05/27 05:15:21;;;;;;;19.25;8.68;;;10.30;93.60;;;;;;4961121;28;20031;-80
2021/05/27 05:17:49;;;;;;;23.73;9.27;;;10.30;93.50;;;;;;4961033;28;20359;-81
2021/05/27 05:20:17;;;;;;;17.83;8.95;;;10.30;93.60;;;;;;4960969;28;20387;-80
2021/05/27 05:22:43;;;;;;;19.63;8.77;;;10.30;93.70;;;;;;4961569;28;20029;-80
2021/05/27 05:25:09;;;;;;;21.58;8.82;;;10.30;93.60;;;;;;4961505;28;20118;-81
2021/05/27 05:27:35;;;;;;;15.82;8.50;;;10.30;93.60;;;;;;4963472;28;20023;-81
2021/05/27 05:30:00;;;;;;;21.50;10.13;;;10.40;93.50;;;;;;4974047;28;20035;-80
2021/05/27 05:32:26;;;;;;;17.77;8.43;;;10.40;93.50;;;;;;4969407;28;20069;-80
2021/05/27 05:34:52;;;;;;;17.05;8.35;;;10.40;93.40;;;;;;4960315;28;20034;-80
2021/05/27 05:37:17;;;;;;;15.40;8.35;;;10.40;93.40;;;;;;4960360;28;20054;-81
2021/05/27 05:39:43;;;;;;;23.75;10.32;;;10.30;93.60;;;;;;4960335;28;20030;-81
2021/05/27 05:42:09;;;;;;;23.35;10.07;;;10.40;93.40;;;;;;4959786;28;20110;-81
2021/05/27 05:44:34;;;;;;;19.98;9.88;;;10.40;93.50;;;;;;4977290;28;20622;-81
2021/05/27 05:47:00;;;;;;;19.55;8.40;;;10.40;93.40;;;;;;4960312;28;20463;-82
2021/05/27 05:49:25;;;;;;;22.05;10.13;;;10.50;93.50;;;;;;4960115;28;20070;-80
2021/05/27 05:51:51;;;;;;;17.65;8.25;;;10.40;93.60;;;;;;4960084;28;20027;-79
2021/05/27 05:54:16;;;;;;;22.90;10.80;;;10.40;93.50;;;;;;4960001;28;20035;-80
2021/05/27 05:56:42;;;;;;;19.65;8.82;;;10.40;93.70;;;;;;4959723;28;20482;-80
2021/05/27 05:59:08;;;;;;;25.60;9.20;;;10.40;93.50;;;;;;4959536;28;20041;-81
2021/05/27 06:01:33;;;;;;;25.45;9.68;;;10.40;93.50;;;;;;4960157;28;20026;-80
2021/05/27 06:03:59;;;;;;;20.00;9.30;;;10.40;93.60;;;;;;4961914;28;20053;-80
2021/05/27 06:06:24;;;;;;;22.45;10.45;;;10.40;93.40;;;;;;4960664;28;20068;-81
2021/05/27 06:08:50;;;;;;;16.88;8.07;;;10.40;93.50;;;;;;4959697;28;20046;-81
2021/05/27 06:11:16;;;;;;;20.95;8.05;;;10.40;93.50;;;;;;4960507;28;20031;-81
2021/05/27 06:13:42;;;;;;;25.67;9.68;;;10.40;93.60;;;;;;4960599;28;20023;-81
2021/05/27 06:16:07;;;;;;;23.90;9.52;;;10.40;93.70;;;;;;4960014;28;20030;-80
2021/05/27 06:18:34;;;;;;;21.10;8.52;;;10.40;93.50;;;;;;4959434;28;20485;-82
2021/05/27 06:20:59;;;;;;;24.05;8.57;;;10.40;93.60;;;;;;4959238;28;20113;-80
2021/05/27 06:23:25;;;;;;;22.10;7.85;;;10.50;93.70;;;;;;4958822;28;20035;-81
2021/05/27 06:25:52;;;;;;;19.60;7.35;;;10.40;92.80;;;;;;4959109;28;20041;-81
2021/05/27 06:28:18;;;;;;;23.83;8.18;;;10.50;92.30;;;;;;4958737;28;20485;-81
2021/05/27 06:30:43;;;;;;;21.85;7.82;;;10.50;93.00;;;;;;4959017;28;20023;-80
2021/05/27 06:33:09;;;;;;;28.52;8.55;;;10.50;93.10;;;;;;4959383;28;20158;-80
2021/05/27 06:35:36;;;;;;;19.65;8.02;;;10.50;93.10;;;;;;4960607;28;20049;-80
2021/05/27 06:38:03;;;;;;;18.23;9.32;;;10.50;93.20;;;;;;4960877;28;20023;-80
2021/05/27 06:40:29;;;;;;;25.52;8.65;;;10.50;93.40;;;;;;4961753;28;20023;-80
2021/05/27 06:42:54;;;;;;;19.83;8.40;;;10.50;93.40;;;;;;4963580;28;20542;-80
2021/05/27 06:45:22;;;;;;;21.83;8.88;;;10.50;93.40;;;;;;4971995;28;20086;-79
2021/05/27 06:47:49;;;;;;;21.60;8.95;;;10.50;93.50;;;;;;4974748;28;20379;-80
2021/05/27 06:50:34;;;;;;;20.98;9.88;;;10.50;93.40;;;;;;4958791;28;20123;-79
2021/05/27 06:53:01;;;;;;;25.58;9.10;;;10.50;93.50;;;;;;4950672;28;20047;-82
2021/05/27 06:55:27;;;;;;;15.63;7.88;;;10.50;93.60;;;;;;4953755;28;20632;-80
2021/05/27 06:57:53;;;;;;;16.90;7.45;;;10.50;93.60;;;;;;4955550;29;20051;-81
2021/05/27 07:00:20;;;;;;;18.60;7.93;;;10.50;93.50;;;;;;4951478;28;20053;-80
2021/05/27 07:02:46;;;;;;;22.05;7.60;;;10.50;93.30;;;;;;4955293;28;20553;-81
2021/05/27 07:05:13;;;;;;;15.52;6.57;;;10.50;93.30;;;;;;4940095;29;20510;-80
2021/05/27 07:07:38;;;;;;;17.52;7.82;;;10.60;93.00;;;;;;4935594;29;20106;-80
2021/05/27 07:10:04;;;;;;;16.65;6.45;;;10.60;93.20;;;;;;4935008;29;20459;-80
2021/05/27 07:12:31;;;;;;;16.65;8.00;;;10.60;93.10;;;;;;4935490;29;20035;-81
2021/05/27 07:14:57;;;;;;;20.08;8.70;;;10.60;93.10;;;;;;4938477;29;20522;-81
2021/05/27 07:17:22;;;;;;;14.45;6.20;;;10.60;93.10;;;;;;4942215;29;20023;-81
2021/05/27 07:19:49;;;;;;;12.68;6.20;;;10.70;93.10;;;;;;4936246;29;20031;-79
2021/05/27 07:22:14;;;;;;;18.63;7.85;;;10.70;93.00;;;;;;4935988;29;20106;-79
2021/05/27 07:24:40;;;;;;;16.38;7.28;;;10.70;93.20;;;;;;4956766;29;20467;-79
2021/05/27 07:27:05;;;;;;;19.83;7.10;;;10.70;93.10;;;;;;4937861;29;20028;-81
2021/05/27 07:29:32;;;;;;;19.40;7.78;;;10.80;93.20;;;;;;4936108;29;20019;-80
2021/05/27 07:31:58;;;;;;;22.00;6.35;;;10.80;92.70;;;;;;4935198;29;20110;-80
2021/05/27 07:34:24;;;;;;;15.02;7.38;;;10.80;93.00;;;;;;4934230;28;20114;-79
2021/05/27 07:36:49;;;;;;;14.43;6.00;;;10.80;93.00;;;;;;4950090;29;20443;-81
2021/05/27 07:39:15;;;;;;;16.05;6.95;;;10.80;92.70;;;;;;4935126;29;20027;-81
2021/05/27 07:41:40;;;;;;;19.15;6.55;;;10.70;92.90;;;;;;4934314;29;20107;-80
2021/05/27 07:44:06;;;;;;;15.30;7.47;;;10.80;92.80;;;;;;4942206;29;20031;-80
2021/05/27 07:46:31;;;;;;;17.13;6.18;;;10.80;92.80;;;;;;4946333;29;20040;-80
2021/05/27 07:48:57;;;;;;;21.88;6.82;;;10.80;92.50;;;;;;4954113;29;20047;-80
2021/05/27 07:51:23;;;;;;;17.08;6.90;;;10.80;92.60;;;;;;4951999;28;20027;-81
2021/05/27 07:53:48;;;;;;;21.08;7.93;;;10.80;92.60;;;;;;4936344;29;20108;-81
2021/05/27 07:56:14;;;;;;;19.75;6.82;;;10.80;92.80;;;;;;4943645;29;20051;-80
2021/05/27 07:58:40;;;;;;;22.38;7.80;;;10.80;92.90;;;;;;4947214;29;20027;-81
2021/05/27 08:01:05;;;;;;;18.25;7.10;;;10.80;93.00;;;;;;4952977;28;20050;-80
2021/05/27 08:03:31;;;;;;;19.00;7.43;;;10.80;92.80;;;;;;4949845;29;20027;-81
2021/05/27 08:05:57;;;;;;;18.75;6.63;;;10.80;92.80;;;;;;4943457;29;20074;-81
2021/05/27 08:08:23;;;;;;;14.68;5.68;;;10.80;92.90;;;;;;4911976;28;1121841;-81
2021/05/27 08:10:48;;;;;;;19.10;7.38;;;10.80;93.00;;;;;;4951130;29;20492;-80
2021/05/27 08:13:15;;;;;;;19.30;6.82;;;10.80;93.30;;;;;;4950139;28;20484;-81
2021/05/27 08:15:41;;;;;;;18.55;8.25;;;10.80;92.60;;;;;;4934314;29;20391;-79
2021/05/27 08:18:07;;;;;;;19.45;7.45;;;10.80;92.90;;;;;;4942218;29;20039;-81
2021/05/27 08:20:32;;;;;;;18.98;7.20;;;10.80;93.00;;;;;;4950040;29;20547;-81
2021/05/27 08:22:58;;;;;;;20.25;6.43;;;10.80;92.90;;;;;;4953412;29;20063;-80
2021/05/27 08:25:24;;;;;;;14.30;7.07;;;10.90;92.90;;;;;;4950984;29;20041;-80
2021/05/27 08:27:50;;;;;;;14.38;6.05;;;10.90;92.90;;;;;;4954484;29;20054;-80
2021/05/27 08:30:16;;;;;;;22.25;7.63;;;11.00;92.90;;;;;;4954273;28;20031;-79
2021/05/27 08:32:42;;;;;;;17.40;7.13;;;11.00;92.60;;;;;;4938573;28;20028;-80
2021/05/27 08:35:08;;;;;;;16.45;5.75;;;11.00;92.00;;;;;;4950029;29;20042;-80
2021/05/27 08:37:33;;;;;;;18.20;6.75;;;11.00;92.20;;;;;;4941162;29;20019;-80
2021/05/27 08:39:59;;;;;;;21.15;7.60;;;11.10;92.60;;;;;;4953242;29;20034;-80
2021/05/27 08:42:26;;;;;;;16.08;6.60;;;11.10;92.70;;;;;;4951002;29;20028;-79
2021/05/27 08:44:55;;;;;;;15.40;6.18;;;11.20;92.60;;;;;;4954270;29;20051;-80
2021/05/27 08:47:21;;;;;;;15.43;6.95;;;11.30;92.50;;;;;;4967246;28;20112;-80
2021/05/27 08:49:49;;;;;;;17.17;6.63;;;11.40;92.20;;;;;;4943776;29;20487;-79
2021/05/27 08:52:15;;;;;;;16.92;6.32;;;11.50;92.00;;;;;;4941050;29;20384;-79
2021/05/27 08:54:41;;;;;;;18.55;5.88;;;11.60;91.70;;;;;;4950112;29;20023;-80
2021/05/27 08:57:07;;;;;;;22.17;8.38;;;11.60;92.00;;;;;;4953549;29;20023;-80
2021/05/27 08:59:32;;;;;;;19.67;7.53;;;11.70;91.90;;;;;;4947655;29;20507;-80
2021/05/27 09:02:06;;;;;;;17.95;6.70;;;11.70;91.60;;;;;;4942722;29;20020;-81
2021/05/27 09:04:33;;;;;;;23.73;8.15;;;11.80;91.80;;;;;;4935041;29;20095;-80
2021/05/27 09:06:59;;;;;;;18.65;7.38;;;11.90;91.70;;;;;;4955190;28;20027;-80
2021/05/27 09:09:24;;;;;;;14.85;6.40;;;11.80;91.50;;;;;;4951664;28;20026;-79
2021/05/27 09:11:50;;;;;;;14.70;6.72;;;11.80;91.60;;;;;;4956287;28;20019;-79
2021/05/27 09:14:16;;;;;;;14.65;6.45;;;11.80;91.50;;;;;;4953134;28;20054;-81
2021/05/27 09:17:11;;;;;;;12.60;6.68;;;11.70;91.20;;;;;;4956061;28;20030;-82
2021/05/27 09:19:37;;;;;;;18.92;8.73;;;11.70;91.20;;;;;;4947347;28;20148;-79
2021/05/27 09:22:20;;;;;;;18.88;6.78;;;11.70;91.60;;;;;;4957953;28;20065;-82
2021/05/27 09:24:47;;;;;;;18.52;8.88;;;11.50;91.40;;;;;;4958617;28;20035;-77
2021/05/27 09:27:13;;;;;;;18.73;7.53;;;11.50;91.70;;;;;;4955161;28;20105;-79
2021/05/27 09:29:46;;;;;;;17.55;7.38;;;11.60;91.20;;;;;;4953564;28;20031;-78
2021/05/27 09:32:12;;;;;;;14.30;6.20;;;11.70;91.60;;;;;;4950716;28;20038;-78
2021/05/27 09:34:46;;;;;;;20.08;6.60;;;11.70;91.40;;;;;;4954528;28;20038;-76
2021/05/27 09:37:31;;;;;;;16.75;7.47;;;11.70;91.50;;;;;;4959360;28;20023;-80
2021/05/27 09:39:59;;;;;;;24.50;7.50;;;11.60;91.40;;;;;;4966719;28;20030;-77
2021/05/27 09:42:25;;;;;;;22.48;8.52;;;11.60;91.70;;;;;;4969506;28;20031;-77
2021/05/27 09:44:52;;;;;;;18.55;9.93;;;11.60;91.30;;;;;;4957058;28;20110;-78
2021/05/27 09:47:35;;;;;;;25.42;9.05;;;11.50;91.10;;;;;;4951949;29;20023;-77
2021/05/27 09:50:04;;;;;;;23.50;8.13;;;11.50;91.30;;;;;;4949026;28;20069;-77
2021/05/27 09:52:48;;;;;;;23.27;8.80;;;11.50;91.40;;;;;;4956303;28;20078;-79
2021/05/27 09:55:19;;;;;;;22.67;9.52;;;11.50;91.30;;;;;;4956414;28;20352;-80
2021/05/27 09:57:46;;;;;;;20.80;8.43;;;11.50;91.60;;;;;;4960115;28;20058;-80
2021/05/27 10:00:26;;;;;;;21.77;10.05;;;11.50;91.80;;;;;;4963207;28;20038;-80
2021/05/27 10:02:52;;;;;;;25.88;10.38;;;11.50;91.50;;;;;;4944387;28;20494;-80
2021/05/27 10:05:19;;;;;;;29.13;11.48;;;11.60;91.70;;;;;;4959990;28;20023;-79
2021/05/27 10:07:48;;;;;;;21.08;9.70;;;11.60;91.80;;;;;;4957640;28;20062;-81
2021/05/27 10:10:18;;;;;;;30.60;11.65;;;11.70;91.70;;;;;;4955999;28;20023;-78
2021/05/27 10:12:50;;;;;;;29.80;13.02;;;11.70;91.40;;;;;;4958948;28;20027;-78
2021/05/27 10:15:19;;;;;;;27.42;13.52;;;11.60;91.40;;;;;;4952601;28;20015;-78
2021/05/27 10:17:49;;;;;;;26.95;11.55;;;11.60;91.50;;;;;;4949427;29;20079;-77
2021/05/27 10:20:20;;;;;;;26.70;10.63;;;11.60;91.80;;;;;;4955776;28;20086;-80
2021/05/27 10:22:46;;;;;;;28.33;11.95;;;11.60;91.40;;;;;;4940776;29;20528;-78
2021/05/27 10:25:15;;;;;;;18.67;8.35;;;11.70;91.30;;;;;;4946082;28;20081;-78
2021/05/27 10:27:47;;;;;;;22.55;10.32;;;11.80;91.00;;;;;;4966923;28;20031;-79
2021/05/27 10:30:14;;;;;;;21.90;9.57;;;11.90;91.10;;;;;;4953907;28;20513;-80
2021/05/27 10:32:50;;;;;;;20.77;8.60;;;12.00;90.90;;;;;;4957880;28;20074;-79
2021/05/27 10:35:17;;;;;;;34.42;10.70;;;12.10;90.90;;;;;;4959105;28;20023;-80
2021/05/27 10:37:43;;;;;;;23.25;10.18;;;12.10;90.60;;;;;;4949987;29;20031;-80
2021/05/27 10:40:12;;;;;;;30.27;10.80;;;12.00;90.70;;;;;;4954040;28;20030;-80
2021/05/27 10:43:04;;;;;;;30.23;11.07;;;12.00;90.80;;;;;;4942796;29;20120;-79
2021/05/27 10:45:33;;;;;;;24.10;9.90;;;11.90;91.30;;;;;;4955522;28;20081;-78
2021/05/27 10:48:14;;;;;;;23.45;10.98;;;11.90;91.40;;;;;;4978490;28;20035;-79
2021/05/27 10:51:03;;;;;;;25.55;11.38;;;11.90;91.60;;;;;;4942675;29;20122;-79
2021/05/27 10:53:39;;;;;;;26.92;10.82;;;11.90;91.60;;;;;;4938873;29;20467;-78
2021/05/27 10:56:16;;;;;;;25.60;9.68;;;11.90;91.60;;;;;;4957003;29;20106;-79
2021/05/27 10:58:52;;;;;;;24.90;11.27;;;11.90;91.40;;;;;;4959012;29;20095;-78
2021/05/27 11:01:19;;;;;;;24.67;11.25;;;11.90;91.50;;;;;;4942250;29;20031;-78
2021/05/27 11:03:50;;;;;;;31.25;13.60;;;11.90;91.90;;;;;;4942948;29;20027;-80
2021/05/27 11:06:29;;;;;;;29.40;13.27;;;11.90;91.80;;;;;;4939532;29;20066;-80
2021/05/27 11:09:25;;;;;;;22.48;9.77;;;11.90;92.00;;;;;;4935555;29;20048;-79
2021/05/27 11:12:15;;;;;;;21.35;10.60;;;12.00;91.90;;;;;;4939976;29;20468;-79
2021/05/27 11:15:10;;;;;;;20.42;9.68;;;12.00;91.90;;;;;;4952556;29;20507;-80
2021/05/27 11:17:36;;;;;;;20.38;9.13;;;12.00;91.70;;;;;;4936253;29;20035;-79
2021/05/27 11:20:11;;;;;;;39.38;14.10;;;12.00;91.60;;;;;;4936577;29;20388;-80
2021/05/27 11:25:17;;;;;;;24.67;12.02;;;11.90;91.70;;;;;;4946875;29;20048;-80
2021/05/27 11:28:07;;;;;;;22.20;12.23;;;11.90;91.80;;;;;;4938260;28;20114;-80
2021/05/27 11:30:39;;;;;;;16.73;8.25;;;11.90;91.80;;;;;;4952073;28;20028;-79
2021/05/27 11:33:14;;;;;;;20.83;11.18;;;11.90;91.80;;;;;;4955058;28;20074;-79
2021/05/27 11:35:40;;;;;;;19.65;9.98;;;12.00;91.80;;;;;;4954255;29;20078;-79
2021/05/27 11:38:17;;;;;;;20.38;9.48;;;12.00;91.90;;;;;;4954420;29;20027;-79
2021/05/27 11:41:04;;;;;;;24.95;9.98;;;12.00;92.00;;;;;;4954561;29;20471;-79
2021/05/27 11:43:35;;;;;;;22.20;11.05;;;12.10;91.90;;;;;;4969712;28;20039;-79
2021/05/27 11:46:06;;;;;;;15.73;9.23;;;12.10;92.10;;;;;;4954178;29;20118;-79
2021/05/27 11:48:55;;;;;;;16.15;7.80;;;12.10;91.90;;;;;;4955883;28;20136;-77
2021/05/27 11:51:24;;;;;;;17.00;7.78;;;12.30;91.70;;;;;;4953941;29;20027;-79
2021/05/27 11:53:54;;;;;;;17.80;7.70;;;12.50;92.00;;;;;;4954450;29;20052;-80
2021/05/27 11:56:43;;;;;;;15.38;7.65;;;12.60;91.40;;;;;;4954947;29;20028;-80
2021/05/27 11:59:11;;;;;;;20.08;8.15;;;12.80;90.90;;;;;;4954564;29;20038;-78
2021/05/27 12:01:38;;;;;;;12.13;6.72;;;12.80;90.80;;;;;;4967420;29;20109;-78
2021/05/27 12:04:05;;;;;;;14.60;7.80;;;12.90;90.40;;;;;;4954336;29;20035;-79
2021/05/27 12:06:58;;;;;;;15.52;7.60;;;12.80;90.40;;;;;;4954773;29;20023;-80
2021/05/27 12:09:30;;;;;;;16.63;8.20;;;12.90;89.60;;;;;;4944945;29;20138;-80
2021/05/27 12:11:58;;;;;;;16.83;7.05;;;12.90;90.50;;;;;;4954136;29;20113;-79
2021/05/27 12:14:23;;;;;;;15.52;6.22;;;12.90;89.10;;;;;;4953725;29;20043;-79
2021/05/27 12:16:50;;;;;;;19.65;7.97;;;12.90;90.00;;;;;;4954161;29;20062;-78
2021/05/27 12:19:16;;;;;;;14.90;7.13;;;13.00;90.30;;;;;;4953075;28;20118;-78
2021/05/27 12:21:56;;;;;;;15.00;7.15;;;13.00;90.30;;;;;;4954267;29;20447;-79
2021/05/27 12:24:29;;;;;;;17.20;8.38;;;13.00;89.90;;;;;;4953883;29;20038;-78
2021/05/27 12:26:57;;;;;;;15.82;7.50;;;12.90;90.50;;;;;;4953850;29;20027;-78
2021/05/27 12:29:24;;;;;;;13.45;6.13;;;12.90;90.50;;;;;;4953915;29;20482;-79
2021/05/27 12:31:50;;;;;;;12.50;6.32;;;12.80;90.30;;;;;;4953830;29;20027;-78
2021/05/27 12:34:20;;;;;;;16.02;6.60;;;12.80;90.90;;;;;;4954232;29;20027;-78
2021/05/27 12:36:59;;;;;;;14.10;5.78;;;12.90;90.70;;;;;;4962928;29;20020;-80
2021/05/27 12:39:36;;;;;;;17.83;5.43;;;13.00;90.20;;;;;;4954042;28;20066;-79
2021/05/27 12:42:05;;;;;;;11.60;6.10;;;13.10;90.50;;;;;;4958228;29;20082;-78
2021/05/27 12:44:41;;;;;;;12.32;5.88;;;13.30;90.10;;;;;;4955286;29;20039;-78
2021/05/27 12:47:18;;;;;;;15.70;6.82;;;13.50;90.10;;;;;;4953965;29;20147;-79
2021/05/27 12:49:44;;;;;;;14.35;5.47;;;13.50;89.80;;;;;;4955279;28;20357;-80
2021/05/27 12:52:11;;;;;;;13.73;6.05;;;13.50;89.90;;;;;;4969862;28;20030;-80
2021/05/27 12:54:36;;;;;;;16.30;5.70;;;13.60;90.40;;;;;;4960913;28;20038;-79
2021/05/27 12:57:06;;;;;;;9.10;4.00;;;13.60;88.00;;;;;;4953413;28;20023;-80